Time;durP1;ratioP1;P1;durP2;ratioP2;P2;SDS_P1;SDS_P2;PMS_P1;PMS_P2;Temp;Humidity;BMP_temperature;BMP_pressure;BME280_temperature;BME280_humidity;BME280_pressure;Samples;Min_cycle;Max_cycle;Signal;HPM_P1;HPM_P2
2024/01/26 00:00:32;;;;;;;18.47;5.00;;;;;;;;;;10404178;28;20270;-68
2024/01/26 00:05:32;;;;;;;17.93;4.50;;;;;;;;;;10408358;28;20188;-67
2024/01/26 00:10:33;;;;;;;20.90;5.10;;;;;;;;;;10408213;28;20716;-67
2024/01/26 00:15:33;;;;;;;25.37;5.73;;;;;;;;;;10408444;28;20640;-67
2024/01/26 00:20:33;;;;;;;25.63;5.23;;;;;;;;;;10404124;28;20217;-68
2024/01/26 00:25:33;;;;;;;22.63;4.90;;;;;;;;;;10414692;28;20206;-68
2024/01/26 00:30:34;;;;;;;27.33;6.20;;;;;;;;;;10415681;28;20647;-68
2024/01/26 00:35:34;;;;;;;20.27;6.13;;;;;;;;;;10412078;28;20224;-67
2024/01/26 00:40:34;;;;;;;27.83;6.07;;;;;;;;;;10415293;28;20205;-67
2024/01/26 00:45:35;;;;;;;21.70;6.00;;;;;;;;;;10415322;28;20191;-67
2024/01/26 00:50:35;;;;;;;23.60;5.53;;;;;;;;;;10415107;28;20737;-67
2024/01/26 00:55:35;;;;;;;26.27;5.47;;;;;;;;;;10411720;28;20215;-67
2024/01/26 01:00:36;;;;;;;23.53;6.00;;;;;;;;;;10417174;28;20713;-67
2024/01/26 01:05:36;;;;;;;25.83;6.47;;;;;;;;;;10414555;28;20203;-67
2024/01/26 01:10:36;;;;;;;26.57;6.90;;;;;;;;;;10414337;28;20215;-67
2024/01/26 01:15:39;;;;;;;26.00;6.53;;;;;;;;;;10410387;28;20222;-67
2024/01/26 01:20:40;;;;;;;22.13;7.50;;;;;;;;;;10413930;28;20213;-68
2024/01/26 01:25:40;;;;;;;26.37;6.20;;;;;;;;;;10414113;28;20286;-68
2024/01/26 01:30:40;;;;;;;28.47;7.27;;;;;;;;;;10413748;28;20223;-68
2024/01/26 01:35:40;;;;;;;28.33;6.27;;;;;;;;;;10410363;28;20219;-68
2024/01/26 01:40:42;;;;;;;30.87;6.20;;;;;;;;;;10412274;28;20869;-68
2024/01/26 01:45:42;;;;;;;22.77;5.90;;;;;;;;;;10412677;28;20663;-68
2024/01/26 01:50:42;;;;;;;23.53;5.33;;;;;;;;;;10412784;28;20252;-68
2024/01/26 01:55:43;;;;;;;32.87;7.07;;;;;;;;;;10408330;28;20278;-69
2024/01/26 02:00:43;;;;;;;26.10;5.83;;;;;;;;;;10411611;28;20471;-69
2024/01/26 02:05:44;;;;;;;25.20;6.17;;;;;;;;;;10410818;28;20212;-69
2024/01/26 02:10:44;;;;;;;18.63;5.60;;;;;;;;;;10407534;28;20213;-69
2024/01/26 02:15:45;;;;;;;18.83;5.73;;;;;;;;;;10411219;28;20315;-69
2024/01/26 02:20:45;;;;;;;28.07;6.20;;;;;;;;;;10411094;28;20216;-69
2024/01/26 02:25:45;;;;;;;21.80;5.53;;;;;;;;;;10411417;28;20192;-69
2024/01/26 02:30:45;;;;;;;22.07;5.73;;;;;;;;;;10406900;28;20216;-69
2024/01/26 02:35:45;;;;;;;21.77;5.70;;;;;;;;;;10410925;28;20234;-69
2024/01/26 02:40:47;;;;;;;20.80;4.97;;;;;;;;;;10410779;28;20369;-69
2024/01/26 02:45:47;;;;;;;29.60;6.40;;;;;;;;;;10409576;28;20220;-69
2024/01/26 02:50:47;;;;;;;11.77;4.47;;;;;;;;;;10388993;28;20244;-69
2024/01/26 02:55:47;;;;;;;24.80;5.63;;;;;;;;;;10410364;28;20239;-69
2024/01/26 03:00:47;;;;;;;19.10;5.90;;;;;;;;;;10409957;28;20271;-69
2024/01/26 03:05:47;;;;;;;27.30;6.80;;;;;;;;;;10409679;28;20210;-69
2024/01/26 03:10:50;;;;;;;25.20;5.23;;;;;;;;;;10405950;28;20234;-69
2024/01/26 03:15:51;;;;;;;24.10;6.00;;;;;;;;;;10409753;28;20733;-69
2024/01/26 03:20:52;;;;;;;20.77;5.57;;;;;;;;;;10409397;28;20694;-69
2024/01/26 03:25:52;;;;;;;22.87;5.73;;;;;;;;;;10408109;28;20196;-69
2024/01/26 03:30:52;;;;;;;23.50;5.43;;;;;;;;;;10431895;22;20246;-67
2024/01/26 03:35:52;;;;;;;18.50;5.23;;;;;;;;;;10444012;28;20280;-67
2024/01/26 03:40:52;;;;;;;16.23;4.80;;;;;;;;;;10445681;28;20243;-67
2024/01/26 03:45:52;;;;;;;25.30;5.57;;;;;;;;;;10434696;28;20450;-67
2024/01/26 03:50:53;;;;;;;19.40;4.53;;;;;;;;;;10433911;28;20234;-67
2024/01/26 03:55:54;;;;;;;14.50;4.13;;;;;;;;;;10433703;28;20211;-67
2024/01/26 04:00:54;;;;;;;21.17;5.10;;;;;;;;;;10433056;28;20299;-67
2024/01/26 04:05:54;;;;;;;16.52;4.50;;;;;;;;;;10433818;28;20198;-67
2024/01/26 04:10:54;;;;;;;17.17;4.47;;;;;;;;;;10433519;28;20234;-67
2024/01/26 04:15:54;;;;;;;15.17;4.33;;;;;;;;;;10433330;28;20265;-67
2024/01/26 04:20:55;;;;;;;15.27;4.10;;;;;;;;;;10433379;28;20207;-67
2024/01/26 04:25:55;;;;;;;14.20;4.50;;;;;;;;;;10433128;28;20184;-67
2024/01/26 04:30:55;;;;;;;16.17;3.90;;;;;;;;;;10433673;28;20706;-67
2024/01/26 04:35:55;;;;;;;83.37;28.77;;;;;;;;;;10433402;28;20223;-66
2024/01/26 04:40:55;;;;;;;34.10;14.23;;;;;;;;;;10433083;28;20204;-66
2024/01/26 04:45:55;;;;;;;27.47;9.37;;;;;;;;;;10432834;28;20204;-67
2024/01/26 04:50:56;;;;;;;25.20;8.80;;;;;;;;;;10432771;28;20223;-67
2024/01/26 04:55:56;;;;;;;18.97;4.30;;;;;;;;;;10432601;28;20694;-67
2024/01/26 05:00:56;;;;;;;51.97;18.47;;;;;;;;;;10432123;28;20208;-67
2024/01/26 05:05:56;;;;;;;74.63;29.87;;;;;;;;;;10432658;28;20188;-67
2024/01/26 05:10:56;;;;;;;74.07;26.37;;;;;;;;;;10436100;28;20211;-66
2024/01/26 05:15:56;;;;;;;39.63;14.43;;;;;;;;;;10439533;28;20223;-67
2024/01/26 05:20:57;;;;;;;42.03;12.77;;;;;;;;;;10439427;28;20204;-67
2024/01/26 05:25:57;;;;;;;16.13;5.53;;;;;;;;;;10439478;28;20184;-68
2024/01/26 05:30:57;;;;;;;19.13;6.43;;;;;;;;;;10438452;28;20751;-68
2024/01/26 05:35:57;;;;;;;29.67;8.30;;;;;;;;;;10438929;28;20219;-67
2024/01/26 05:40:57;;;;;;;15.50;3.93;;;;;;;;;;10438515;28;20230;-67
2024/01/26 05:45:57;;;;;;;15.73;3.93;;;;;;;;;;10438347;28;20286;-68
2024/01/26 05:50:58;;;;;;;19.33;4.27;;;;;;;;;;10438036;28;20226;-68
2024/01/26 05:56:00;;;;;;;14.83;3.63;;;;;;;;;;10437957;28;20207;-67
2024/01/26 06:01:00;;;;;;;16.07;3.90;;;;;;;;;;10438046;28;20200;-68
2024/01/26 06:06:00;;;;;;;13.30;3.70;;;;;;;;;;10437632;28;20191;-67
2024/01/26 06:11:00;;;;;;;12.80;3.53;;;;;;;;;;10437440;28;20578;-67
2024/01/26 06:16:01;;;;;;;12.43;3.90;;;;;;;;;;10437291;28;20238;-67
2024/01/26 06:21:01;;;;;;;18.13;3.40;;;;;;;;;;10436500;28;20238;-67
2024/01/26 06:26:01;;;;;;;11.85;3.20;;;;;;;;;;10437750;28;20219;-67
2024/01/26 06:31:01;;;;;;;13.93;3.60;;;;;;;;;;10446631;28;20216;-68
2024/01/26 06:36:02;;;;;;;13.17;3.90;;;;;;;;;;10446859;28;20694;-67
2024/01/26 06:41:02;;;;;;;11.43;2.80;;;;;;;;;;10444648;28;20204;-68
2024/01/26 06:46:03;;;;;;;11.93;3.10;;;;;;;;;;10441286;28;20509;-68
2024/01/26 06:51:03;;;;;;;10.77;3.40;;;;;;;;;;10446779;28;20648;-67
2024/01/26 06:56:03;;;;;;;11.40;3.80;;;;;;;;;;10446131;28;20705;-68
2024/01/26 07:01:04;;;;;;;8.43;3.30;;;;;;;;;;10442721;28;20219;-68
2024/01/26 07:06:04;;;;;;;9.53;3.83;;;;;;;;;;10435397;28;20234;-67
2024/01/26 07:11:04;;;;;;;14.27;4.00;;;;;;;;;;10439572;28;20212;-68
2024/01/26 07:16:04;;;;;;;18.70;6.80;;;;;;;;;;10436932;28;20225;-68
2024/01/26 07:21:06;;;;;;;10.67;5.60;;;;;;;;;;10441134;28;20215;-68
2024/01/26 07:26:07;;;;;;;9.80;4.80;;;;;;;;;;10446832;28;20195;-68
2024/01/26 07:31:07;;;;;;;15.17;5.13;;;;;;;;;;10443079;28;20686;-68
2024/01/26 07:36:07;;;;;;;10.87;3.83;;;;;;;;;;10442497;28;20226;-68
2024/01/26 07:41:08;;;;;;;8.10;3.80;;;;;;;;;;10437718;28;20220;-67
2024/01/26 07:46:08;;;;;;;5.73;3.63;;;;;;;;;;10432087;28;20278;-68
2024/01/26 07:51:08;;;;;;;7.27;5.17;;;;;;;;;;10434022;28;20628;-68
2024/01/26 07:56:09;;;;;;;4.37;3.07;;;;;;;;;;10431358;28;20605;-68
2024/01/26 08:01:11;;;;;;;8.37;5.27;;;;;;;;;;10429393;28;20760;-68
2024/01/26 08:06:11;;;;;;;4.33;2.80;;;;;;;;;;10441276;28;20192;-68
2024/01/26 08:11:11;;;;;;;2.07;1.63;;;;;;;;;;10442456;28;20211;-67
2024/01/26 08:16:15;;;;;;;2.67;2.30;;;;;;;;;;10435419;28;20212;-67
2024/01/26 08:21:15;;;;;;;3.17;1.97;;;;;;;;;;10431929;28;20216;-67
2024/01/26 08:26:16;;;;;;;3.67;2.27;;;;;;;;;;10430136;28;20208;-67
2024/01/26 08:31:16;;;;;;;1.87;1.57;;;;;;;;;;10428324;28;20293;-67
2024/01/26 08:36:16;;;;;;;2.10;1.90;;;;;;;;;;10430782;28;20490;-67
2024/01/26 08:41:17;;;;;;;1.60;1.50;;;;;;;;;;10434045;28;20678;-68
2024/01/26 08:46:17;;;;;;;3.33;1.63;;;;;;;;;;10436547;28;21016;-67
2024/01/26 08:51:17;;;;;;;2.43;2.07;;;;;;;;;;10447316;28;20240;-67
2024/01/26 08:56:17;;;;;;;2.03;1.73;;;;;;;;;;10446782;28;20232;-68
2024/01/26 09:01:19;;;;;;;2.43;1.43;;;;;;;;;;10445738;28;20201;-68
2024/01/26 09:06:19;;;;;;;2.50;1.83;;;;;;;;;;10442030;28;20188;-68
2024/01/26 09:11:19;;;;;;;2.80;1.20;;;;;;;;;;10440549;28;20713;-68
2024/01/26 09:16:20;;;;;;;3.10;1.70;;;;;;;;;;10437118;28;20212;-68
2024/01/26 09:21:20;;;;;;;1.40;1.30;;;;;;;;;;10435647;28;20339;-68
2024/01/26 09:26:21;;;;;;;1.60;1.20;;;;;;;;;;10434862;28;20366;-68
2024/01/26 09:31:21;;;;;;;1.53;1.13;;;;;;;;;;10435002;28;20236;-68
2024/01/26 09:36:22;;;;;;;3.63;3.33;;;;;;;;;;10437224;28;20212;-68
2024/01/26 09:41:22;;;;;;;2.30;2.10;;;;;;;;;;10436262;28;20682;-68
2024/01/26 09:46:22;;;;;;;2.13;1.50;;;;;;;;;;10436240;28;20679;-67
2024/01/26 09:51:23;;;;;;;1.50;1.40;;;;;;;;;;10436638;28;20561;-67
2024/01/26 09:56:23;;;;;;;1.10;1.07;;;;;;;;;;10435923;28;20598;-68
2024/01/26 10:01:23;;;;;;;2.90;1.10;;;;;;;;;;10436460;28;20203;-69
2024/01/26 10:06:24;;;;;;;1.20;1.00;;;;;;;;;;10435189;28;20454;-69
2024/01/26 10:11:24;;;;;;;0.93;0.90;;;;;;;;;;10435653;28;20218;-69
2024/01/26 10:16:24;;;;;;;1.27;1.00;;;;;;;;;;10435919;28;20253;-69
2024/01/26 10:21:24;;;;;;;1.07;0.97;;;;;;;;;;10435504;28;20213;-69
2024/01/26 10:26:27;;;;;;;1.20;1.10;;;;;;;;;;10435323;28;20287;-69
2024/01/26 10:31:27;;;;;;;1.90;1.47;;;;;;;;;;10437374;28;20765;-68
2024/01/26 10:36:28;;;;;;;1.87;1.23;;;;;;;;;;10442446;28;20224;-69
2024/01/26 10:41:29;;;;;;;2.73;0.90;;;;;;;;;;10436161;28;20579;-68
2024/01/26 10:46:29;;;;;;;1.37;0.90;;;;;;;;;;10434612;28;20188;-69
2024/01/26 10:51:29;;;;;;;0.70;0.70;;;;;;;;;;10431767;28;20216;-68
2024/01/26 10:56:30;;;;;;;0.80;0.80;;;;;;;;;;10434135;28;20471;-68
2024/01/26 11:01:31;;;;;;;1.13;1.03;;;;;;;;;;10434446;28;20291;-68
2024/01/26 11:06:31;;;;;;;0.70;0.70;;;;;;;;;;10433050;28;20199;-68
2024/01/26 11:11:35;;;;;;;0.90;0.90;;;;;;;;;;10434343;28;20701;-68
2024/01/26 11:16:38;;;;;;;0.90;0.90;;;;;;;;;;10433069;28;21262;-68
2024/01/26 11:21:38;;;;;;;1.07;0.77;;;;;;;;;;10433020;28;20212;-68
2024/01/26 11:26:38;;;;;;;0.80;0.80;;;;;;;;;;10433345;28;20195;-68
2024/01/26 11:31:40;;;;;;;0.83;0.80;;;;;;;;;;10432314;28;20240;-69
2024/01/26 11:36:40;;;;;;;0.90;0.70;;;;;;;;;;10432175;28;20213;-69
2024/01/26 11:41:46;;;;;;;0.70;0.70;;;;;;;;;;10436771;28;20207;-68
2024/01/26 11:46:47;;;;;;;0.60;0.60;;;;;;;;;;10444330;28;20635;-69
2024/01/26 11:51:47;;;;;;;0.70;0.70;;;;;;;;;;10442926;28;20207;-68
2024/01/26 11:56:47;;;;;;;0.70;0.70;;;;;;;;;;10445596;28;20227;-69
2024/01/26 12:01:48;;;;;;;0.80;0.80;;;;;;;;;;10439399;28;20200;-69
2024/01/26 12:06:48;;;;;;;0.80;0.80;;;;;;;;;;10431892;28;20207;-68
2024/01/26 12:11:48;;;;;;;1.20;0.87;;;;;;;;;;10431222;28;20203;-69
2024/01/26 12:16:49;;;;;;;0.90;0.90;;;;;;;;;;10431064;28;20217;-70
2024/01/26 12:21:50;;;;;;;0.90;0.90;;;;;;;;;;10438662;28;20200;-70
2024/01/26 12:26:50;;;;;;;0.93;0.93;;;;;;;;;;10441008;28;20677;-69
2024/01/26 12:31:50;;;;;;;1.33;0.80;;;;;;;;;;10439616;28;20848;-69
2024/01/26 12:36:56;;;;;;;1.30;1.20;;;;;;;;;;10439749;28;20284;-68
2024/01/26 12:41:56;;;;;;;1.20;1.00;;;;;;;;;;10438598;28;20374;-68
2024/01/26 12:46:57;;;;;;;1.20;1.10;;;;;;;;;;10438810;28;20265;-68
2024/01/26 12:51:58;;;;;;;0.80;0.80;;;;;;;;;;10446458;28;20211;-69
2024/01/26 12:56:59;;;;;;;0.70;0.70;;;;;;;;;;10454025;28;20208;-69
2024/01/26 13:01:59;;;;;;;0.80;0.80;;;;;;;;;;10454169;28;20287;-69
2024/01/26 13:07:00;;;;;;;0.90;0.90;;;;;;;;;;10454450;28;20184;-68
2024/01/26 13:12:03;;;;;;;1.10;1.00;;;;;;;;;;10454007;28;20212;-68
2024/01/26 13:17:03;;;;;;;1.83;1.50;;;;;;;;;;10452856;28;20223;-68
2024/01/26 13:22:03;;;;;;;4.03;3.53;;;;;;;;;;10452625;28;20222;-68
2024/01/26 13:27:04;;;;;;;10.00;4.43;;;;;;;;;;10453977;28;20198;-68
2024/01/26 13:32:05;;;;;;;2.47;1.87;;;;;;;;;;10452083;28;20492;-68
2024/01/26 13:37:05;;;;;;;2.37;1.73;;;;;;;;;;10453052;28;20702;-68
2024/01/26 13:42:06;;;;;;;7.13;4.93;;;;;;;;;;10453357;28;20211;-68
2024/01/26 13:47:06;;;;;;;5.27;3.60;;;;;;;;;;10452903;28;20192;-68
2024/01/26 13:52:06;;;;;;;2.20;2.00;;;;;;;;;;10450539;28;20215;-67
2024/01/26 13:57:07;;;;;;;1.57;1.47;;;;;;;;;;10452062;28;20277;-67
2024/01/26 14:02:07;;;;;;;30.00;14.43;;;;;;;;;;10450541;28;20207;-67
2024/01/26 14:07:07;;;;;;;6.63;4.00;;;;;;;;;;10451510;28;20662;-68
2024/01/26 14:12:07;;;;;;;1.93;1.70;;;;;;;;;;10451250;28;20247;-67
2024/01/26 14:17:08;;;;;;;7.43;5.00;;;;;;;;;;10450280;28;20946;-68
2024/01/26 14:22:08;;;;;;;26.27;13.83;;;;;;;;;;10449345;28;20223;-68
2024/01/26 14:27:08;;;;;;;6.03;3.70;;;;;;;;;;10450616;28;20216;-68
2024/01/26 14:32:09;;;;;;;1.50;1.40;;;;;;;;;;10449016;28;20227;-67
2024/01/26 14:37:09;;;;;;;4.77;3.43;;;;;;;;;;10448170;28;20220;-67
2024/01/26 14:42:10;;;;;;;10.17;5.50;;;;;;;;;;10449473;28;20290;-67
2024/01/26 14:47:12;;;;;;;3.03;2.67;;;;;;;;;;10449246;28;20187;-66
2024/01/26 14:52:12;;;;;;;3.93;2.63;;;;;;;;;;10449698;28;20748;-67
2024/01/26 14:57:12;;;;;;;1.30;1.20;;;;;;;;;;10448778;28;20212;-66
2024/01/26 15:02:13;;;;;;;3.17;2.57;;;;;;;;;;10450202;28;20215;-66
2024/01/26 15:07:14;;;;;;;3.10;2.30;;;;;;;;;;10448394;28;20208;-66
2024/01/26 15:12:14;;;;;;;9.87;5.27;;;;;;;;;;10449832;28;20200;-66
2024/01/26 15:17:14;;;;;;;1.27;1.17;;;;;;;;;;10449100;28;20628;-66
2024/01/26 15:22:15;;;;;;;0.90;0.90;;;;;;;;;;10448579;28;20208;-66
2024/01/26 15:27:15;;;;;;;0.90;0.90;;;;;;;;;;10447126;28;20208;-65
2024/01/26 15:32:15;;;;;;;1.00;1.00;;;;;;;;;;10448471;28;20246;-65
2024/01/26 15:37:15;;;;;;;2.13;1.92;;;;;;;;;;10448837;28;20215;-66
2024/01/26 15:42:16;;;;;;;2.43;1.43;;;;;;;;;;10478064;22;20244;-69
2024/01/26 15:47:16;;;;;;;0.93;0.93;;;;;;;;;;10445139;28;20192;-70
2024/01/26 15:52:16;;;;;;;1.40;1.30;;;;;;;;;;10451373;28;20208;-70
2024/01/26 15:57:16;;;;;;;1.20;1.10;;;;;;;;;;10448869;28;20249;-69
2024/01/26 16:02:16;;;;;;;2.13;1.93;;;;;;;;;;10453811;28;20720;-70
2024/01/26 16:07:17;;;;;;;1.50;1.10;;;;;;;;;;10458932;28;20211;-69
2024/01/26 16:12:17;;;;;;;1.40;1.30;;;;;;;;;;10458652;28;20203;-69
2024/01/26 16:17:18;;;;;;;0.83;0.83;;;;;;;;;;10455916;28;20219;-69
2024/01/26 16:22:18;;;;;;;1.30;0.90;;;;;;;;;;10450798;28;20195;-69
2024/01/26 16:27:18;;;;;;;4.10;1.20;;;;;;;;;;10450028;28;20184;-70
2024/01/26 16:32:18;;;;;;;4.67;1.20;;;;;;;;;;10448074;28;20751;-72
2024/01/26 16:37:19;;;;;;;2.00;1.27;;;;;;;;;;10452479;28;20473;-72
2024/01/26 16:42:19;;;;;;;2.70;1.20;;;;;;;;;;10449702;28;20258;-73
2024/01/26 16:47:19;;;;;;;2.10;1.10;;;;;;;;;;10451006;28;20654;-72
2024/01/26 16:52:19;;;;;;;2.90;0.97;;;;;;;;;;10449081;28;20204;-71
2024/01/26 16:57:19;;;;;;;4.80;1.17;;;;;;;;;;10446994;28;20600;-71
2024/01/26 17:02:20;;;;;;;5.80;1.50;;;;;;;;;;10462989;28;20260;-71
2024/01/26 17:07:21;;;;;;;1.93;1.17;;;;;;;;;;10469287;28;20246;-71
2024/01/26 17:12:22;;;;;;;7.67;1.70;;;;;;;;;;10457312;28;20568;-71
2024/01/26 17:17:22;;;;;;;3.13;1.03;;;;;;;;;;10457786;28;20306;-71
2024/01/26 17:22:22;;;;;;;2.50;1.40;;;;;;;;;;10455927;28;20203;-71
2024/01/26 17:27:23;;;;;;;4.07;1.83;;;;;;;;;;10456600;28;20184;-71
2024/01/26 17:32:23;;;;;;;1.90;1.50;;;;;;;;;;10456660;28;20223;-71
2024/01/26 17:37:23;;;;;;;5.87;2.00;;;;;;;;;;10457009;28;20690;-70
2024/01/26 17:42:23;;;;;;;20.17;10.27;;;;;;;;;;10455474;28;20710;-69
2024/01/26 17:47:24;;;;;;;2.07;1.63;;;;;;;;;;10454733;28;20658;-70
2024/01/26 17:52:25;;;;;;;4.47;1.70;;;;;;;;;;10455222;28;20208;-71
2024/01/26 17:57:25;;;;;;;4.30;1.43;;;;;;;;;;10455560;28;20215;-70
2024/01/26 18:02:25;;;;;;;5.47;1.60;;;;;;;;;;10455347;28;20694;-70
2024/01/26 18:07:25;;;;;;;3.20;2.13;;;;;;;;;;10454285;28;20245;-70
2024/01/26 18:12:25;;;;;;;3.80;1.63;;;;;;;;;;10456944;28;20213;-71
2024/01/26 18:17:26;;;;;;;2.70;1.23;;;;;;;;;;10459711;28;20216;-72
2024/01/26 18:22:26;;;;;;;4.07;1.40;;;;;;;;;;10466603;28;20203;-71
2024/01/26 18:27:26;;;;;;;4.23;1.20;;;;;;;;;;10465154;28;20209;-72
2024/01/26 18:32:27;;;;;;;4.63;1.13;;;;;;;;;;10462103;28;20208;-71
2024/01/26 18:37:27;;;;;;;5.47;2.67;;;;;;;;;;10453814;28;20204;-72
2024/01/26 18:42:27;;;;;;;5.70;1.30;;;;;;;;;;10449874;28;20224;-73
2024/01/26 18:47:27;;;;;;;9.80;1.23;;;;;;;;;;10452600;28;20196;-73
2024/01/26 18:52:29;;;;;;;6.33;1.60;;;;;;;;;;10453310;28;20257;-73
2024/01/26 18:57:30;;;;;;;2.63;1.10;;;;;;;;;;10452206;28;20230;-71
2024/01/26 19:02:30;;;;;;;4.30;1.20;;;;;;;;;;10452839;28;20314;-70
2024/01/26 19:07:30;;;;;;;7.80;1.53;;;;;;;;;;10452227;28;20278;-70
2024/01/26 19:12:31;;;;;;;5.37;2.43;;;;;;;;;;10452346;28;20212;-71
2024/01/26 19:17:31;;;;;;;10.27;1.70;;;;;;;;;;10451733;28;20211;-70
2024/01/26 19:22:31;;;;;;;3.10;1.30;;;;;;;;;;10451859;28;20694;-72
2024/01/26 19:27:32;;;;;;;5.80;2.00;;;;;;;;;;10450575;28;20192;-70
2024/01/26 19:32:32;;;;;;;3.47;1.50;;;;;;;;;;10452039;28;20694;-71
2024/01/26 19:37:33;;;;;;;5.43;1.53;;;;;;;;;;10450990;28;20227;-71
2024/01/26 19:42:33;;;;;;;5.70;1.50;;;;;;;;;;10451515;28;20985;-70
2024/01/26 19:47:33;;;;;;;6.43;1.37;;;;;;;;;;10456217;28;20678;-70
2024/01/26 19:52:34;;;;;;;7.43;1.60;;;;;;;;;;10462018;28;20585;-70
2024/01/26 19:57:34;;;;;;;5.33;1.30;;;;;;;;;;10465961;28;20215;-69
2024/01/26 20:02:35;;;;;;;2.03;1.20;;;;;;;;;;10462562;28;20216;-69
2024/01/26 20:07:35;;;;;;;4.60;1.50;;;;;;;;;;10461377;28;20184;-69
2024/01/26 20:12:36;;;;;;;4.03;1.90;;;;;;;;;;10451785;28;20218;-69
2024/01/26 20:17:36;;;;;;;2.90;1.50;;;;;;;;;;10464059;28;20229;-69
2024/01/26 20:22:38;;;;;;;4.30;1.30;;;;;;;;;;10457024;28;20211;-68
2024/01/26 20:27:38;;;;;;;3.43;1.33;;;;;;;;;;10452566;28;20257;-68
2024/01/26 20:32:39;;;;;;;3.67;1.30;;;;;;;;;;10452830;28;20219;-68
2024/01/26 20:37:39;;;;;;;6.30;2.13;;;;;;;;;;10451725;28;20227;-68
2024/01/26 20:42:41;;;;;;;3.37;2.10;;;;;;;;;;10465329;28;20250;-69
2024/01/26 20:47:41;;;;;;;4.27;1.87;;;;;;;;;;10473686;28;20283;-69
2024/01/26 20:52:42;;;;;;;5.20;2.23;;;;;;;;;;10463740;28;20291;-69
2024/01/26 20:57:44;;;;;;;10.33;1.90;;;;;;;;;;10458943;28;20220;-69
2024/01/26 21:02:44;;;;;;;7.00;3.17;;;;;;;;;;10458692;28;20204;-69
2024/01/26 21:07:57;;;;;;;6.77;1.70;;;;;;;;;;10464229;28;20210;-69
2024/01/26 21:12:59;;;;;;;13.03;1.90;;;;;;;;;;10462272;28;20212;-68
2024/01/26 21:17:59;;;;;;;8.37;1.90;;;;;;;;;;10468069;28;20219;-69
2024/01/26 21:23:00;;;;;;;7.00;2.00;;;;;;;;;;10467086;28;20646;-69
2024/01/26 21:28:00;;;;;;;12.23;2.50;;;;;;;;;;10472018;28;20183;-68
2024/01/26 21:33:00;;;;;;;11.83;2.60;;;;;;;;;;10459221;28;20219;-69
2024/01/26 21:38:00;;;;;;;13.30;2.70;;;;;;;;;;10457422;28;20215;-69
2024/01/26 21:43:00;;;;;;;12.30;2.53;;;;;;;;;;10457508;28;20729;-69
2024/01/26 21:48:03;;;;;;;13.87;2.80;;;;;;;;;;10457650;28;20556;-69
2024/01/26 21:53:03;;;;;;;13.23;2.53;;;;;;;;;;10455931;28;20470;-69
2024/01/26 21:58:03;;;;;;;15.37;2.83;;;;;;;;;;10457245;28;20226;-69
2024/01/26 22:03:04;;;;;;;9.83;2.43;;;;;;;;;;10458380;28;20466;-68
2024/01/26 22:08:07;;;;;;;14.57;2.43;;;;;;;;;;10457390;28;20188;-68
2024/01/26 22:13:07;;;;;;;12.77;3.03;;;;;;;;;;10457849;28;20575;-68
2024/01/26 22:18:07;;;;;;;13.50;3.10;;;;;;;;;;10456694;28;20184;-69
2024/01/26 22:23:07;;;;;;;13.33;2.00;;;;;;;;;;10457775;28;20204;-69
2024/01/26 22:28:07;;;;;;;8.90;2.13;;;;;;;;;;10456755;28;20192;-69
2024/01/26 22:33:07;;;;;;;13.33;1.77;;;;;;;;;;10456039;28;20285;-68
2024/01/26 22:38:08;;;;;;;9.17;2.00;;;;;;;;;;10455677;28;20181;-69
2024/01/26 22:43:09;;;;;;;10.73;1.90;;;;;;;;;;10455491;28;20232;-69
2024/01/26 22:48:09;;;;;;;7.93;1.83;;;;;;;;;;10456241;28;20203;-69
2024/01/26 22:53:09;;;;;;;9.40;2.00;;;;;;;;;;10458032;28;20212;-69
2024/01/26 22:58:09;;;;;;;9.37;1.87;;;;;;;;;;10455858;28;20192;-69
2024/01/26 23:03:10;;;;;;;7.30;1.93;;;;;;;;;;10455582;28;20215;-69
2024/01/26 23:08:10;;;;;;;5.83;2.00;;;;;;;;;;10454139;28;20661;-68
2024/01/26 23:13:11;;;;;;;5.20;1.93;;;;;;;;;;10453899;28;20262;-69
2024/01/26 23:18:11;;;;;;;8.07;2.03;;;;;;;;;;10455028;28;20211;-69
2024/01/26 23:23:11;;;;;;;11.40;2.50;;;;;;;;;;10453866;28;20458;-69
2024/01/26 23:28:11;;;;;;;10.93;1.77;;;;;;;;;;10453888;28;20438;-69
2024/01/26 23:33:11;;;;;;;14.37;2.47;;;;;;;;;;10452416;28;20256;-69
2024/01/26 23:38:12;;;;;;;8.43;2.07;;;;;;;;;;10453334;28;20184;-69
2024/01/26 23:43:12;;;;;;;8.47;2.00;;;;;;;;;;10453688;28;20232;-69
2024/01/26 23:48:13;;;;;;;6.30;1.80;;;;;;;;;;10453491;28;20440;-69
2024/01/26 23:53:13;;;;;;;8.80;2.23;;;;;;;;;;10452467;28;20203;-68
2024/01/26 23:58:14;;;;;;;11.00;2.07;;;;;;;;;;10453288;28;20210;-69
